Time;durP1;ratioP1;P1;durP2;ratioP2;P2;SDS_P1;SDS_P2;PMS_P1;PMS_P2;Temp;Humidity;BMP_temperature;BMP_pressure;BME280_temperature;BME280_humidity;BME280_pressure;Samples;Min_cycle;Max_cycle;Signal;HPM_P1;HPM_P2
2021/04/10 00:00:09;;;;;;;;;;;13.30;60.00;;;;;;5058818;28;19935;-62
2021/04/10 00:02:35;;;;;;;;;;;13.40;59.90;;;;;;5063323;28;19935;-63
2021/04/10 00:05:02;;;;;;;;;;;13.30;60.10;;;;;;5072888;28;19924;-62
2021/04/10 00:07:28;;;;;;;;;;;13.30;60.20;;;;;;5074233;28;19924;-63
2021/04/10 00:09:54;;;;;;;;;;;13.30;59.90;;;;;;5058876;28;19925;-63
2021/04/10 00:12:21;;;;;;;;;;;13.30;59.90;;;;;;5061054;28;19928;-62
2021/04/10 00:14:47;;;;;;;;;;;13.30;59.90;;;;;;5064808;28;19989;-63
2021/04/10 00:17:14;;;;;;;;;;;13.30;59.70;;;;;;5069907;28;19935;-63
2021/04/10 00:19:40;;;;;;;;;;;13.30;59.60;;;;;;5070112;28;20263;-63
2021/04/10 00:22:06;;;;;;;;;;;13.20;59.70;;;;;;5064069;28;19924;-63
2021/04/10 00:24:32;;;;;;;;;;;13.20;59.80;;;;;;5060511;28;19933;-63
2021/04/10 00:26:58;;;;;;;;;;;13.10;60.70;;;;;;5068173;28;20404;-62
2021/04/10 00:29:26;;;;;;;;;;;13.10;60.10;;;;;;5059005;28;19925;-62
2021/04/10 00:31:52;;;;;;;;;;;13.10;60.20;;;;;;5065518;28;20351;-63
2021/04/10 00:34:18;;;;;;;;;;;13.00;60.40;;;;;;5068002;28;20258;-63
2021/04/10 00:36:44;;;;;;;;;;;13.00;60.70;;;;;;5073341;28;19924;-63
2021/04/10 00:39:10;;;;;;;;;;;12.90;60.90;;;;;;5060899;28;19928;-63
2021/04/10 00:41:37;;;;;;;;;;;12.90;61.20;;;;;;5055594;28;19928;-63
2021/04/10 00:44:06;;;;;;;;;;;12.80;61.50;;;;;;5066687;28;19925;-63
2021/04/10 00:46:33;;;;;;;;;;;12.80;61.80;;;;;;5071231;28;19925;-62
2021/04/10 00:48:59;;;;;;;;;;;12.70;61.90;;;;;;5066447;28;19935;-63
2021/04/10 00:51:25;;;;;;;;;;;12.70;62.20;;;;;;5055970;28;19925;-62
2021/04/10 00:53:52;;;;;;;;;;;12.70;62.50;;;;;;5059683;28;20347;-63
2021/04/10 00:56:18;;;;;;;;;;;12.60;62.60;;;;;;5061530;28;20381;-63
2021/04/10 00:58:44;;;;;;;;;;;12.60;62.80;;;;;;5060154;28;20297;-63
2021/04/10 01:01:10;;;;;;;;;;;12.60;63.20;;;;;;5065567;28;19934;-62
2021/04/10 01:03:37;;;;;;;;;;;12.60;63.30;;;;;;5055089;28;20056;-63
2021/04/10 01:06:04;;;;;;;;;;;12.60;63.50;;;;;;5065901;28;19925;-63
2021/04/10 01:08:30;;;;;;;;;;;12.50;63.70;;;;;;5058964;28;20102;-63
2021/04/10 01:10:59;;;;;;;;;;;12.50;64.10;;;;;;5067856;28;19935;-63
2021/04/10 01:13:31;;;;;;;;;;;12.40;64.60;;;;;;5065296;28;19935;-63
2021/04/10 01:16:01;;;;;;;;;;;12.40;65.30;;;;;;5065596;28;19924;-62
2021/04/10 01:18:29;;;;;;;;;;;12.30;65.90;;;;;;5060780;28;19935;-63
2021/04/10 01:21:06;;;;;;;;;;;12.20;67.40;;;;;;5070948;28;19928;-63
2021/04/10 01:23:49;;;;;;;;;;;12.10;67.90;;;;;;5057178;28;19939;-63
2021/04/10 01:26:23;;;;;;;;;;;12.00;69.00;;;;;;5071239;28;20682;-62
2021/04/10 01:28:53;;;;;;;;;;;11.90;69.50;;;;;;5062764;28;19955;-62
2021/04/10 01:31:20;;;;;;;;;;;11.80;70.30;;;;;;5060392;28;19947;-63
2021/04/10 01:33:47;;;;;;;;;;;11.70;70.60;;;;;;5066870;28;19943;-62
2021/04/10 01:36:16;;;;;;;;;;;11.70;70.90;;;;;;5055653;28;19936;-63
2021/04/10 01:38:45;;;;;;;;;;;11.60;71.00;;;;;;5041359;28;20020;-63
2021/04/10 01:41:12;;;;;;;;;;;11.60;71.30;;;;;;5051658;28;19931;-62
2021/04/10 01:43:38;;;;;;;;;;;11.50;71.70;;;;;;5047093;28;19925;-62
2021/04/10 01:46:06;;;;;;;;;;;11.50;72.10;;;;;;5045727;28;20036;-62
2021/04/10 01:48:33;;;;;;;;;;;11.50;72.50;;;;;;5046918;28;20279;-63
2021/04/10 01:51:00;;;;;;;;;;;11.50;73.00;;;;;;5043200;28;19990;-63
2021/04/10 01:53:27;;;;;;;;;;;11.40;73.00;;;;;;5048324;28;19929;-63
2021/04/10 01:55:54;;;;;;;;;;;11.40;73.40;;;;;;5039248;28;19927;-63
2021/04/10 01:58:20;;;;;;;;;;;11.40;73.70;;;;;;5045798;28;19931;-62
2021/04/10 02:00:47;;;;;;;;;;;11.40;74.10;;;;;;5035365;28;19925;-63
2021/04/10 02:03:17;;;;;;;;;;;11.30;74.10;;;;;;5045198;28;20347;-63
2021/04/10 02:05:43;;;;;;;;;;;11.30;74.40;;;;;;5054513;28;20377;-63
2021/04/10 02:08:10;;;;;;;;;;;11.30;74.40;;;;;;5070264;28;19939;-63
2021/04/10 02:10:38;;;;;;;;;;;11.30;74.80;;;;;;5066855;28;19935;-63
2021/04/10 02:13:04;;;;;;;;;;;11.20;74.90;;;;;;5050297;28;19933;-62
2021/04/10 02:15:30;;;;;;;;;;;11.20;75.00;;;;;;5050617;28;19929;-62
2021/04/10 02:17:58;;;;;;;;;;;11.20;75.10;;;;;;5041371;28;19925;-63
2021/04/10 02:20:25;;;;;;;;;;;11.20;75.40;;;;;;5047319;28;21025;-63
2021/04/10 02:22:53;;;;;;;;;;;11.20;75.60;;;;;;5047873;28;19975;-62
2021/04/10 02:25:21;;;;;;;;;;;11.20;75.80;;;;;;5069492;28;20058;-62
2021/04/10 02:27:48;;;;;;;;;;;11.20;76.00;;;;;;5074947;28;19925;-63
2021/04/10 02:30:15;;;;;;;;;;;11.10;76.00;;;;;;5064412;28;20294;-63
2021/04/10 02:32:48;;;;;;;;;;;11.20;76.30;;;;;;5071983;28;19924;-63
2021/04/10 02:35:15;;;;;;;;;;;11.20;76.40;;;;;;5075681;28;19942;-63
2021/04/10 02:37:43;;;;;;;;;;;11.20;76.70;;;;;;5071975;28;19935;-63
2021/04/10 02:40:11;;;;;;;;;;;11.20;76.70;;;;;;5067097;28;19928;-63
2021/04/10 02:42:39;;;;;;;;;;;11.20;76.90;;;;;;5062436;28;19924;-62
2021/04/10 02:45:06;;;;;;;;;;;11.20;76.90;;;;;;5075398;28;20254;-63
2021/04/10 02:47:34;;;;;;;;;;;11.20;76.90;;;;;;5069451;28;19935;-62
2021/04/10 02:50:04;;;;;;;;;;;11.20;76.90;;;;;;5063783;28;19925;-63
2021/04/10 02:52:33;;;;;;;;;;;11.20;77.00;;;;;;5073194;28;20047;-63
2021/04/10 02:55:01;;;;;;;;;;;11.20;77.00;;;;;;5063633;28;19925;-62
2021/04/10 02:57:28;;;;;;;;;;;11.30;77.20;;;;;;5073874;28;19928;-62
2021/04/10 02:59:57;;;;;;;;;;;11.30;77.20;;;;;;5064486;28;19987;-63
2021/04/10 03:02:24;;;;;;;;;;;11.30;77.30;;;;;;5061691;28;20048;-62
2021/04/10 03:04:50;;;;;;;;;;;11.30;77.60;;;;;;5068706;28;19939;-62
2021/04/10 03:07:17;;;;;;;;;;;11.30;77.70;;;;;;5057047;28;20012;-63
2021/04/10 03:09:44;;;;;;;;;;;11.30;77.70;;;;;;5068725;28;19931;-63
2021/04/10 03:12:12;;;;;;;;;;;11.30;78.10;;;;;;5065920;28;19928;-62
2021/04/10 03:14:38;;;;;;;;;;;11.30;78.20;;;;;;5061818;28;19925;-62
2021/04/10 03:17:04;;;;;;;;;;;11.30;78.10;;;;;;5068150;28;19925;-62
2021/04/10 03:19:31;;;;;;;;;;;11.20;78.10;;;;;;5065958;28;19939;-61
2021/04/10 03:21:58;;;;;;;;;;;11.30;78.50;;;;;;5075299;28;20361;-62
2021/04/10 03:24:24;;;;;;;;;;;11.30;78.60;;;;;;5066637;28;19925;-62
2021/04/10 03:26:50;;;;;;;;;;;11.30;78.80;;;;;;5056816;28;19924;-62
2021/04/10 03:29:18;;;;;;;;;;;11.30;79.10;;;;;;5067866;28;19924;-62
2021/04/10 03:31:44;;;;;;;;;;;11.30;79.40;;;;;;5061152;28;19925;-62
2021/04/10 03:34:11;;;;;;;;;;;11.30;79.60;;;;;;5061607;28;19928;-62
2021/04/10 03:36:37;;;;;;;;;;;11.30;79.80;;;;;;5074245;28;20358;-63
2021/04/10 03:39:03;;;;;;;;;;;11.30;80.00;;;;;;5073082;28;19932;-62
2021/04/10 03:41:30;;;;;;;;;;;11.30;80.30;;;;;;5058885;28;19933;-63
2021/04/10 03:43:56;;;;;;;;;;;11.30;81.10;;;;;;5056742;28;19981;-63
2021/04/10 03:46:23;;;;;;;;;;;11.30;81.20;;;;;;5074245;28;20270;-63
2021/04/10 03:48:49;;;;;;;;;;;11.30;81.40;;;;;;5070774;28;19955;-62
2021/04/10 03:51:15;;;;;;;;;;;11.30;82.20;;;;;;5066410;28;19973;-63
2021/04/10 03:53:42;;;;;;;;;;;11.20;82.20;;;;;;5071958;28;20255;-63
2021/04/10 03:56:08;;;;;;;;;;;11.20;82.50;;;;;;5074412;28;19966;-62
2021/04/10 03:58:34;;;;;;;;;;;11.20;82.60;;;;;;5066004;28;20207;-63
2021/04/10 04:01:00;;;;;;;;;;;11.20;83.00;;;;;;5056917;28;19935;-63
2021/04/10 04:03:27;;;;;;;;;;;11.20;83.10;;;;;;5067208;28;19978;-63
2021/04/10 04:05:54;;;;;;;;;;;11.20;83.50;;;;;;5060878;28;19924;-63
2021/04/10 04:08:20;;;;;;;;;;;11.20;83.60;;;;;;5057447;28;19929;-63
2021/04/10 04:10:46;;;;;;;;;;;11.20;84.30;;;;;;5066827;28;19925;-63
2021/04/10 04:13:12;;;;;;;;;;;11.20;84.30;;;;;;5071301;28;19924;-63
2021/04/10 04:15:38;;;;;;;;;;;11.10;84.40;;;;;;5061597;28;19928;-63
2021/04/10 04:18:05;;;;;;;;;;;11.10;85.10;;;;;;5062202;28;20290;-62
2021/04/10 04:20:32;;;;;;;;;;;11.10;85.70;;;;;;5062670;28;19924;-61
2021/04/10 04:22:58;;;;;;;;;;;11.10;86.20;;;;;;5061868;28;20283;-62
2021/04/10 04:25:24;;;;;;;;;;;11.10;86.00;;;;;;5062086;28;20290;-62
2021/04/10 04:27:50;;;;;;;;;;;11.10;86.30;;;;;;5061601;28;19925;-62
2021/04/10 04:30:19;;;;;;;;;;;11.10;87.40;;;;;;5061154;28;19935;-62
2021/04/10 04:32:45;;;;;;;;;;;11.10;88.60;;;;;;5069165;28;20120;-63
2021/04/10 04:35:12;;;;;;;;;;;11.10;89.40;;;;;;5072524;28;19935;-63
2021/04/10 04:37:40;;;;;;;;;;;11.10;90.30;;;;;;5053507;28;19932;-62
2021/04/10 04:40:07;;;;;;;;;;;11.10;90.60;;;;;;5053786;28;20360;-62
2021/04/10 04:42:34;;;;;;;;;;;11.00;90.90;;;;;;5052824;28;19940;-62
2021/04/10 04:45:00;;;;;;;;;;;11.00;91.20;;;;;;5053404;28;20355;-62
2021/04/10 04:47:26;;;;;;;;;;;11.00;91.80;;;;;;5052684;28;19925;-63
2021/04/10 04:49:52;;;;;;;;;;;11.00;92.00;;;;;;5053593;28;19990;-63
2021/04/10 04:52:19;;;;;;;;;;;11.00;92.20;;;;;;5053357;28;19935;-62
2021/04/10 04:54:46;;;;;;;;;;;11.00;92.40;;;;;;5053913;28;19929;-62
2021/04/10 04:57:12;;;;;;;;;;;11.00;92.60;;;;;;5053637;28;19935;-61
2021/04/10 04:59:38;;;;;;;;;;;11.00;92.70;;;;;;5053343;28;20295;-62
2021/04/10 05:02:04;;;;;;;;;;;11.00;92.90;;;;;;5053398;28;19925;-62
2021/04/10 05:04:30;;;;;;;;;;;11.00;93.00;;;;;;5053049;28;19925;-62
2021/04/10 05:06:57;;;;;;;;;;;11.00;93.00;;;;;;5053586;28;19925;-62
2021/04/10 05:09:23;;;;;;;;;;;11.00;92.80;;;;;;5053006;28;19925;-62
2021/04/10 05:11:51;;;;;;;;;;;10.90;92.80;;;;;;5053520;28;19932;-62
2021/04/10 05:14:17;;;;;;;;;;;10.90;93.30;;;;;;5052915;28;19925;-62
2021/04/10 05:16:43;;;;;;;;;;;10.90;92.90;;;;;;5053273;28;20614;-62
2021/04/10 05:19:09;;;;;;;;;;;10.90;93.10;;;;;;5053503;28;20270;-62
2021/04/10 05:21:36;;;;;;;;;;;10.90;93.30;;;;;;5052626;28;19925;-62
2021/04/10 05:24:02;;;;;;;;;;;10.80;93.50;;;;;;5053332;28;19934;-62
2021/04/10 05:26:28;;;;;;;;;;;10.80;93.80;;;;;;5052851;28;19931;-61
2021/04/10 05:28:55;;;;;;;;;;;10.80;94.00;;;;;;5053007;28;19937;-62
2021/04/10 05:31:23;;;;;;;;;;;10.80;94.30;;;;;;5052561;28;19925;-62
2021/04/10 05:33:49;;;;;;;;;;;10.80;94.70;;;;;;5053160;28;19925;-62
2021/04/10 05:36:15;;;;;;;;;;;10.80;94.90;;;;;;5053085;28;19925;-63
2021/04/10 05:38:41;;;;;;;;;;;10.80;94.80;;;;;;5052487;28;19931;-62
2021/04/10 05:41:08;;;;;;;;;;;10.80;95.00;;;;;;5052838;28;19924;-62
2021/04/10 05:43:34;;;;;;;;;;;10.70;95.10;;;;;;5052337;28;19933;-62
2021/04/10 05:46:01;;;;;;;;;;;10.70;95.20;;;;;;5053197;28;19943;-62
2021/04/10 05:48:27;;;;;;;;;;;10.70;95.50;;;;;;5052432;28;19935;-62
2021/04/10 05:50:54;;;;;;;;;;;10.70;95.50;;;;;;5053103;28;19924;-62
2021/04/10 05:53:20;;;;;;;;;;;10.70;95.10;;;;;;5052617;28;19985;-62
2021/04/10 05:55:46;;;;;;;;;;;10.70;95.20;;;;;;5052998;28;20367;-63
2021/04/10 05:58:12;;;;;;;;;;;10.70;95.40;;;;;;5055545;28;19928;-63
2021/04/10 06:00:39;;;;;;;;;;;10.70;95.60;;;;;;5056654;28;19932;-63
2021/04/10 06:03:07;;;;;;;;;;;10.60;95.50;;;;;;5056836;28;19935;-62
2021/04/10 06:05:33;;;;;;;;;;;10.60;95.60;;;;;;5056372;28;19924;-63
2021/04/10 06:07:59;;;;;;;;;;;10.60;95.50;;;;;;5056797;28;19928;-63
2021/04/10 06:10:25;;;;;;;;;;;10.60;95.70;;;;;;5056380;28;20008;-62
2021/04/10 06:12:52;;;;;;;;;;;10.60;95.90;;;;;;5056853;28;19986;-63
2021/04/10 06:15:19;;;;;;;;;;;10.60;96.10;;;;;;5056733;28;20038;-63
2021/04/10 06:17:45;;;;;;;;;;;10.50;96.00;;;;;;5056279;28;20657;-63
2021/04/10 06:20:14;;;;;;;;;;;10.50;96.00;;;;;;5056741;28;20416;-63
2021/04/10 06:22:40;;;;;;;;;;;10.50;96.10;;;;;;5056025;28;19925;-63
2021/04/10 06:25:07;;;;;;;;;;;10.50;96.20;;;;;;5056435;28;19931;-63
2021/04/10 06:27:33;;;;;;;;;;;10.60;96.40;;;;;;5056058;28;19941;-62
2021/04/10 06:30:00;;;;;;;;;;;10.50;96.40;;;;;;5056386;28;19939;-62
2021/04/10 06:32:26;;;;;;;;;;;10.50;96.40;;;;;;5055939;28;20086;-62
2021/04/10 06:34:52;;;;;;;;;;;10.50;96.40;;;;;;5056365;28;19924;-62
2021/04/10 06:37:19;;;;;;;;;;;10.50;96.40;;;;;;5056068;28;19982;-62
2021/04/10 06:39:45;;;;;;;;;;;10.50;96.40;;;;;;5055756;28;19932;-62
2021/04/10 06:42:12;;;;;;;;;;;10.50;96.30;;;;;;5056081;28;19924;-63
2021/04/10 06:44:38;;;;;;;;;;;10.50;96.20;;;;;;5055917;28;19929;-63
2021/04/10 06:47:05;;;;;;;;;;;10.50;96.40;;;;;;5056138;28;19925;-63
2021/04/10 06:49:32;;;;;;;;;;;10.50;96.50;;;;;;5055704;28;19935;-63
2021/04/10 06:51:58;;;;;;;;;;;10.50;96.60;;;;;;5056043;28;19931;-63
2021/04/10 06:54:29;;;;;;;;;;;10.50;96.70;;;;;;5055676;28;19982;-63
2021/04/10 06:56:57;;;;;;;;;;;10.40;96.70;;;;;;5055804;28;19935;-62
2021/04/10 06:59:28;;;;;;;;;;;10.40;96.60;;;;;;5055298;28;19978;-62
2021/04/10 07:01:56;;;;;;;;;;;10.40;96.50;;;;;;5055770;28;19928;-63
2021/04/10 07:04:23;;;;;;;;;;;10.40;96.40;;;;;;5055829;28;19925;-63
2021/04/10 07:06:49;;;;;;;;;;;10.30;96.40;;;;;;5075294;28;19973;-63
2021/04/10 07:09:15;;;;;;;;;;;10.20;96.30;;;;;;5075008;28;19925;-63
2021/04/10 07:11:43;;;;;;;;;;;10.20;96.40;;;;;;5075196;28;19935;-63
2021/04/10 07:14:09;;;;;;;;;;;10.10;96.50;;;;;;5075460;28;19928;-63
2021/04/10 07:16:36;;;;;;;;;;;10.10;96.80;;;;;;5075179;28;19924;-62
2021/04/10 07:19:08;;;;;;;;;;;10.10;96.80;;;;;;5075516;28;19931;-62
2021/04/10 07:21:34;;;;;;;;;;;10.10;97.00;;;;;;5074944;28;19924;-63
2021/04/10 07:24:00;;;;;;;;;;;10.10;97.20;;;;;;5075455;28;19924;-62
2021/04/10 07:26:41;;;;;;;;;;;10.00;97.40;;;;;;5074846;28;20279;-62
2021/04/10 07:29:28;;;;;;;;;;;10.00;97.40;;;;;;5075060;28;20115;-63
2021/04/10 07:31:54;;;;;;;;;;;10.00;97.50;;;;;;5075006;28;19932;-63
2021/04/10 07:34:21;;;;;;;;;;;10.00;97.40;;;;;;5075258;28;19924;-63
2021/04/10 07:36:57;;;;;;;;;;;10.00;97.30;;;;;;5074764;28;20004;-63
2021/04/10 07:39:24;;;;;;;;;;;10.00;97.30;;;;;;5075150;28;19985;-63
2021/04/10 07:42:03;;;;;;;;;;;10.00;97.60;;;;;;5074354;28;19960;-63
2021/04/10 07:44:37;;;;;;;;;;;10.00;97.50;;;;;;5075286;28;19929;-63
2021/04/10 07:47:04;;;;;;;;;;;10.00;97.60;;;;;;5074803;28;20665;-63
2021/04/10 07:49:30;;;;;;;;;;;10.00;97.60;;;;;;5074763;28;19938;-63
2021/04/10 07:51:57;;;;;;;;;;;10.00;97.90;;;;;;5074583;28;19925;-63
2021/04/10 07:54:24;;;;;;;;;;;10.00;98.00;;;;;;5074898;28;19956;-62
2021/04/10 07:56:51;;;;;;;;;;;10.00;97.90;;;;;;5074333;28;19982;-63
2021/04/10 07:59:17;;;;;;;;;;;10.10;98.00;;;;;;5074814;28;19954;-63
2021/04/10 08:01:44;;;;;;;;;;;10.10;98.00;;;;;;5074011;28;20367;-62
2021/04/10 08:04:12;;;;;;;;;;;10.10;97.80;;;;;;5074488;28;20343;-62
2021/04/10 08:06:39;;;;;;;;;;;10.20;97.50;;;;;;5074544;28;19924;-63
2021/04/10 08:09:05;;;;;;;;;;;10.20;97.50;;;;;;5074328;28;19993;-63
2021/04/10 08:11:32;;;;;;;;;;;10.20;97.70;;;;;;5074303;28;19925;-62
2021/04/10 08:13:59;;;;;;;;;;;10.20;97.70;;;;;;5074010;28;19924;-62
2021/04/10 08:16:25;;;;;;;;;;;10.30;97.70;;;;;;5074271;28;20415;-62
2021/04/10 08:18:53;;;;;;;;;;;10.30;97.50;;;;;;5073849;28;19924;-62
2021/04/10 08:21:20;;;;;;;;;;;10.30;97.40;;;;;;5073165;28;19977;-62
2021/04/10 08:23:47;;;;;;;;;;;10.40;97.40;;;;;;5073702;28;19931;-63
2021/04/10 08:26:14;;;;;;;;;;;10.40;97.40;;;;;;5074140;28;20365;-63
2021/04/10 08:28:40;;;;;;;;;;;10.40;97.40;;;;;;5074048;28;20369;-62
2021/04/10 08:31:07;;;;;;;;;;;10.40;97.30;;;;;;5073854;28;20648;-63
2021/04/10 08:33:34;;;;;;;;;;;10.40;97.00;;;;;;5074001;28;19924;-63
2021/04/10 08:36:03;;;;;;;;;;;10.50;97.10;;;;;;5073675;28;19934;-62
2021/04/10 08:38:31;;;;;;;;;;;10.50;97.10;;;;;;5073776;28;19942;-63
2021/04/10 08:40:58;;;;;;;;;;;10.50;97.20;;;;;;5073423;28;20405;-63
2021/04/10 08:43:25;;;;;;;;;;;10.60;97.30;;;;;;5073725;28;19935;-63
2021/04/10 08:45:53;;;;;;;;;;;10.70;97.40;;;;;;5073387;28;19924;-63
2021/04/10 08:48:20;;;;;;;;;;;10.70;97.30;;;;;;5073772;28;19928;-63
2021/04/10 08:50:46;;;;;;;;;;;10.80;97.30;;;;;;5073373;28;19924;-63
2021/04/10 08:53:16;;;;;;;;;;;10.90;97.20;;;;;;5073664;28;19985;-62
2021/04/10 08:55:42;;;;;;;;;;;10.90;97.20;;;;;;5073735;28;19925;-63
2021/04/10 08:58:26;;;;;;;;;;;11.00;97.20;;;;;;5072998;28;19935;-61
2021/04/10 09:00:53;;;;;;;;;;;11.00;97.10;;;;;;5072974;28;19934;-62
2021/04/10 09:03:20;;;;;;;;;;;11.10;97.00;;;;;;5073320;28;19932;-62
2021/04/10 09:05:48;;;;;;;;;;;11.20;97.00;;;;;;5073292;28;20232;-63
2021/04/10 09:08:25;;;;;;;;;;;11.20;96.80;;;;;;5073262;28;19924;-62
2021/04/10 09:10:53;;;;;;;;;;;11.20;96.90;;;;;;5072937;28;19935;-62
2021/04/10 09:13:23;;;;;;;;;;;11.30;96.90;;;;;;5073340;28;19924;-62
2021/04/10 09:15:52;;;;;;;;;;;11.40;96.70;;;;;;5072978;28;19993;-63
2021/04/10 09:18:19;;;;;;;;;;;11.40;96.60;;;;;;5073239;28;19924;-62
2021/04/10 09:20:49;;;;;;;;;;;11.50;97.00;;;;;;5073382;28;19929;-62
2021/04/10 09:23:27;;;;;;;;;;;11.50;96.20;;;;;;5073031;28;19924;-63
2021/04/10 09:26:05;;;;;;;;;;;11.50;96.00;;;;;;5072764;28;20057;-63
2021/04/10 09:28:33;;;;;;;;;;;11.60;95.20;;;;;;5072932;28;19969;-62
2021/04/10 09:30:59;;;;;;;;;;;11.60;94.70;;;;;;5072853;28;19928;-64
2021/04/10 09:33:35;;;;;;;;;;;11.60;94.40;;;;;;5072909;28;19931;-63
2021/04/10 09:36:01;;;;;;;;;;;11.70;94.60;;;;;;5072754;28;19986;-63
2021/04/10 09:38:48;;;;;;;;;;;11.80;94.10;;;;;;5072831;28;19931;-62
2021/04/10 09:41:16;;;;;;;;;;;11.80;93.90;;;;;;5067423;28;19934;-63
2021/04/10 09:43:58;;;;;;;;;;;11.80;93.90;;;;;;5072160;28;21030;-63
2021/04/10 09:46:31;;;;;;;;;;;11.80;93.80;;;;;;5072815;28;19924;-62
2021/04/10 09:48:57;;;;;;;;;;;11.90;93.50;;;;;;5072898;28;20274;-63
2021/04/10 09:51:23;;;;;;;;;;;11.90;93.40;;;;;;5072532;28;19924;-62
2021/04/10 09:53:50;;;;;;;;;;;11.90;93.20;;;;;;5073123;28;19993;-63
2021/04/10 09:56:17;;;;;;;;;;;11.90;93.10;;;;;;5072273;28;20343;-62
2021/04/10 09:58:45;;;;;;;;;;;12.00;93.30;;;;;;5072885;28;19924;-62
2021/04/10 10:01:13;;;;;;;;;;;12.10;93.40;;;;;;5072517;28;19924;-63
2021/04/10 10:03:40;;;;;;;;;;;12.10;93.20;;;;;;5072687;28;19939;-63
2021/04/10 10:06:16;;;;;;;;;;;12.20;93.10;;;;;;5072357;28;19935;-62
2021/04/10 10:08:44;;;;;;;;;;;12.20;92.80;;;;;;5071528;28;19935;-62
2021/04/10 10:11:10;;;;;;;;;;;12.20;92.00;;;;;;5070511;28;19924;-62
2021/04/10 10:13:37;;;;;;;;;;;12.30;91.60;;;;;;5071293;28;20147;-63
2021/04/10 10:16:04;;;;;;;;;;;12.30;91.20;;;;;;5071222;28;19925;-63
2021/04/10 10:18:32;;;;;;;;;;;12.30;91.10;;;;;;5071337;28;19931;-63
2021/04/10 10:20:59;;;;;;;;;;;12.40;91.30;;;;;;5071451;28;19924;-62
2021/04/10 10:23:26;;;;;;;;;;;12.40;91.10;;;;;;5071672;28;19924;-62
2021/04/10 10:25:52;;;;;;;;;;;12.50;91.40;;;;;;5072397;28;19942;-62
2021/04/10 10:28:20;;;;;;;;;;;12.50;91.10;;;;;;5072053;28;19924;-62
2021/04/10 10:30:47;;;;;;;;;;;12.60;91.00;;;;;;5072437;28;19931;-62
2021/04/10 10:33:13;;;;;;;;;;;12.70;90.80;;;;;;5072045;28;19946;-62
2021/04/10 10:35:49;;;;;;;;;;;12.70;90.80;;;;;;5072579;28;19938;-62
2021/04/10 10:38:15;;;;;;;;;;;12.70;90.70;;;;;;5071932;28;19924;-63
2021/04/10 10:40:44;;;;;;;;;;;12.80;90.50;;;;;;5072179;28;19925;-61
2021/04/10 10:43:10;;;;;;;;;;;12.80;90.00;;;;;;5071833;28;20006;-62
2021/04/10 10:45:41;;;;;;;;;;;12.80;90.10;;;;;;5075571;28;20239;-62
2021/04/10 10:48:24;;;;;;;;;;;12.80;90.10;;;;;;5075529;28;19951;-63
2021/04/10 10:50:51;;;;;;;;;;;12.90;90.10;;;;;;5075953;28;20337;-63
2021/04/10 10:53:18;;;;;;;;;;;12.90;90.20;;;;;;5075586;28;19930;-62
2021/04/10 10:55:54;;;;;;;;;;;13.00;89.50;;;;;;5075632;28;19932;-63
2021/04/10 10:58:20;;;;;;;;;;;13.00;89.30;;;;;;5075147;28;19931;-61
2021/04/10 11:00:46;;;;;;;;;;;13.00;88.00;;;;;;5075786;28;20338;-61
2021/04/10 11:03:18;;;;;;;;;;;13.00;88.30;;;;;;5075304;28;19931;-63
2021/04/10 11:05:46;;;;;;;;;;;13.00;88.40;;;;;;5075810;28;19925;-63
2021/04/10 11:08:12;;;;;;;;;;;13.00;88.40;;;;;;5075211;28;19935;-63
2021/04/10 11:10:39;;;;;;;;;;;13.00;88.40;;;;;;5075929;28;19935;-63
2021/04/10 11:13:06;;;;;;;;;;;13.00;89.30;;;;;;5075375;28;19924;-62
2021/04/10 11:15:32;;;;;;;;;;;13.00;89.60;;;;;;5075361;28;19934;-61
2021/04/10 11:17:58;;;;;;;;;;;13.00;88.70;;;;;;5075247;28;19928;-62
2021/04/10 11:20:29;;;;;;;;;;;12.90;87.50;;;;;;5074914;28;19924;-61
2021/04/10 11:23:03;;;;;;;;;;;12.90;86.70;;;;;;5075518;28;19935;-63
2021/04/10 11:25:29;;;;;;;;;;;12.90;87.00;;;;;;5075112;28;19932;-62
2021/04/10 11:27:55;;;;;;;;;;;12.80;86.60;;;;;;5075380;28;20255;-62
2021/04/10 11:30:22;;;;;;;;;;;12.70;86.60;;;;;;5074973;28;19935;-63
2021/04/10 11:32:48;;;;;;;;;;;12.70;86.70;;;;;;5075212;28;19924;-64
2021/04/10 11:35:15;;;;;;;;;;;12.70;86.60;;;;;;5074905;28;20282;-62
2021/04/10 11:37:42;;;;;;;;;;;12.60;86.00;;;;;;5075207;28;19925;-63
2021/04/10 11:40:10;;;;;;;;;;;12.60;86.60;;;;;;5075116;28;20122;-62
2021/04/10 11:42:38;;;;;;;;;;;12.60;87.30;;;;;;5074757;28;19924;-62
2021/04/10 11:45:06;;;;;;;;;;;12.60;87.80;;;;;;5075342;28;20266;-62
2021/04/10 11:47:33;;;;;;;;;;;12.60;88.40;;;;;;5074537;28;19939;-62
2021/04/10 11:50:09;;;;;;;;;;;12.70;87.70;;;;;;5074844;28;19971;-63
2021/04/10 11:52:36;;;;;;;;;;;12.70;88.00;;;;;;5074593;28;19931;-63
2021/04/10 11:55:03;;;;;;;;;;;12.70;88.20;;;;;;5074575;28;19964;-62
2021/04/10 11:57:31;;;;;;;;;;;12.70;88.40;;;;;;5074236;28;20274;-62
2021/04/10 12:00:02;;;;;;;;;;;12.70;87.70;;;;;;5074962;28;19931;-62
2021/04/10 12:02:32;;;;;;;;;;;12.70;87.50;;;;;;5074250;28;19924;-62
2021/04/10 12:04:58;;;;;;;;;;;12.70;87.50;;;;;;5074652;28;19985;-62
2021/04/10 12:07:24;;;;;;;;;;;12.70;87.40;;;;;;5074069;28;19925;-62
2021/04/10 12:09:51;;;;;;;;;;;12.80;87.40;;;;;;5074479;28;19924;-62
2021/04/10 12:12:17;;;;;;;;;;;12.80;87.00;;;;;;5074092;28;19925;-62
2021/04/10 12:14:44;;;;;;;;;;;12.80;87.10;;;;;;5074518;28;19924;-61
2021/04/10 12:17:11;;;;;;;;;;;12.80;87.00;;;;;;5074244;28;19924;-63
2021/04/10 12:19:38;;;;;;;;;;;12.90;87.20;;;;;;5073982;28;19925;-62
2021/04/10 12:22:04;;;;;;;;;;;12.90;87.30;;;;;;5074387;28;19928;-63
2021/04/10 12:24:30;;;;;;;;;;;12.90;87.50;;;;;;5073727;28;19924;-62
2021/04/10 12:26:57;;;;;;;;;;;12.90;87.50;;;;;;5074169;28;19925;-63
2021/04/10 12:29:24;;;;;;;;;;;12.90;86.90;;;;;;5073731;28;20312;-64
2021/04/10 12:31:51;;;;;;;;;;;12.90;86.30;;;;;;5074206;28;20320;-64
2021/04/10 12:34:17;;;;;;;;;;;13.00;86.50;;;;;;5073731;28;20351;-64
2021/04/10 12:36:43;;;;;;;;;;;13.00;85.60;;;;;;5074112;28;19986;-64
2021/04/10 12:39:10;;;;;;;;;;;13.00;85.30;;;;;;5073829;28;19928;-64
2021/04/10 12:41:36;;;;;;;;;;;13.00;85.30;;;;;;5073562;28;19931;-63
2021/04/10 12:44:03;;;;;;;;;;;13.00;85.10;;;;;;5073719;28;19925;-64
2021/04/10 12:46:29;;;;;;;;;;;13.00;84.90;;;;;;5073319;28;19928;-63
2021/04/10 12:48:56;;;;;;;;;;;13.00;84.50;;;;;;5073922;28;19977;-63
2021/04/10 12:51:22;;;;;;;;;;;13.00;84.40;;;;;;5073315;28;19928;-63
2021/04/10 12:53:48;;;;;;;;;;;13.00;84.60;;;;;;5073711;28;19942;-63
2021/04/10 12:56:20;;;;;;;;;;;13.00;84.20;;;;;;5073652;28;19924;-63
2021/04/10 12:58:46;;;;;;;;;;;13.00;84.20;;;;;;5073150;28;19935;-64
2021/04/10 13:01:13;;;;;;;;;;;13.00;84.50;;;;;;5073560;28;20007;-64
2021/04/10 13:03:40;;;;;;;;;;;13.00;84.60;;;;;;5073070;28;19929;-63
2021/04/10 13:06:08;;;;;;;;;;;13.00;85.00;;;;;;5073339;28;19925;-63
2021/04/10 13:08:34;;;;;;;;;;;13.00;85.10;;;;;;5072662;28;19934;-63
2021/04/10 13:11:00;;;;;;;;;;;13.00;85.10;;;;;;5073524;28;20312;-64
2021/04/10 13:13:26;;;;;;;;;;;13.00;85.20;;;;;;5072842;28;19935;-64
2021/04/10 13:15:52;;;;;;;;;;;13.00;85.40;;;;;;5073504;28;20011;-63
2021/04/10 13:18:19;;;;;;;;;;;13.00;85.30;;;;;;5073087;28;20041;-63
2021/04/10 13:20:45;;;;;;;;;;;13.00;84.90;;;;;;5072863;28;20396;-63
2021/04/10 13:23:12;;;;;;;;;;;13.00;84.90;;;;;;5073392;28;19924;-63
2021/04/10 13:25:39;;;;;;;;;;;13.00;85.00;;;;;;5072846;28;19930;-64
2021/04/10 13:28:05;;;;;;;;;;;13.00;84.30;;;;;;5072884;28;19948;-63
2021/04/10 13:30:31;;;;;;;;;;;13.00;84.50;;;;;;5072889;28;20378;-63
2021/04/10 13:32:57;;;;;;;;;;;12.90;84.70;;;;;;5073199;28;20266;-64
2021/04/10 13:35:26;;;;;;;;;;;12.90;84.70;;;;;;5073219;28;19936;-64
2021/04/10 13:37:52;;;;;;;;;;;12.90;84.90;;;;;;5072885;28;20041;-64
2021/04/10 13:40:19;;;;;;;;;;;12.90;85.00;;;;;;5072950;28;20304;-63
2021/04/10 13:42:45;;;;;;;;;;;12.90;85.10;;;;;;5072707;28;20069;-64
2021/04/10 13:45:12;;;;;;;;;;;12.90;85.60;;;;;;5073206;28;20271;-64
2021/04/10 13:47:38;;;;;;;;;;;12.80;85.20;;;;;;5072484;28;19935;-63
2021/04/10 13:50:05;;;;;;;;;;;12.80;85.40;;;;;;5073042;28;19924;-63
2021/04/10 13:52:31;;;;;;;;;;;12.80;85.40;;;;;;5072507;28;19924;-64
2021/04/10 13:54:57;;;;;;;;;;;12.80;85.60;;;;;;5072914;28;19924;-64
2021/04/10 13:57:25;;;;;;;;;;;12.80;85.20;;;;;;5072798;28;19924;-64
2021/04/10 13:59:51;;;;;;;;;;;12.80;85.10;;;;;;5072514;28;19933;-63
2021/04/10 14:02:17;;;;;;;;;;;12.80;85.10;;;;;;5072835;28;20362;-63
2021/04/10 14:05:02;;;;;;;;;;;12.80;85.00;;;;;;5072467;28;19925;-65
2021/04/10 14:07:30;;;;;;;;;;;12.70;84.90;;;;;;5072831;28;19924;-64
2021/04/10 14:09:56;;;;;;;;;;;12.70;84.70;;;;;;5072697;28;21139;-63
2021/04/10 14:12:23;;;;;;;;;;;12.70;84.80;;;;;;5072821;28;19931;-63
2021/04/10 14:14:49;;;;;;;;;;;12.70;84.90;;;;;;5072125;28;19932;-63
2021/04/10 14:17:15;;;;;;;;;;;12.70;84.80;;;;;;5072660;28;19942;-64